createdAt,value
2023-05-03T05:03:05.779Z,727.00
2023-05-03T05:04:06.734Z,724.00
2023-05-03T05:05:06.734Z,725.00
2023-05-03T05:06:06.860Z,727.00
2023-05-03T05:07:05.824Z,726.00
2023-05-03T05:08:06.818Z,725.00
2023-05-03T05:09:06.830Z,726.00
2023-05-03T05:10:06.885Z,723.00
2023-05-03T05:11:06.951Z,724.00
2023-05-03T05:12:05.974Z,724.00
2023-05-03T05:13:06.987Z,719.00
2023-05-03T05:14:07.018Z,718.00
2023-05-03T05:15:07.043Z,721.00
2023-05-03T05:16:06.053Z,719.00
2023-05-03T05:17:06.140Z,719.00
2023-05-03T05:18:07.100Z,721.00
2023-05-03T05:19:07.123Z,720.00
2023-05-03T05:20:06.301Z,720.00
2023-05-03T05:21:06.136Z,719.00
2023-05-03T05:22:07.162Z,719.00
2023-05-03T05:23:07.158Z,718.00
2023-05-03T05:24:07.182Z,719.00
2023-05-03T05:25:06.194Z,719.00
2023-05-03T05:26:06.212Z,719.00
2023-05-03T05:27:07.252Z,718.00
2023-05-03T05:28:07.274Z,718.00
2023-05-03T05:29:07.279Z,718.00
2023-05-03T05:30:07.321Z,719.00
2023-05-03T05:31:07.384Z,720.00
2023-05-03T05:32:07.396Z,722.00
2023-05-03T05:33:06.508Z,722.00
2023-05-03T05:34:07.414Z,721.00
2023-05-03T05:35:06.475Z,718.00
2023-05-03T05:36:07.425Z,717.00
2023-05-03T05:37:06.431Z,719.00
2023-05-03T05:38:07.454Z,719.00
2023-05-03T05:39:07.440Z,721.00
2023-05-03T05:40:07.448Z,720.00
2023-05-03T05:41:07.467Z,718.00
2023-05-03T05:42:07.449Z,719.00
2023-05-03T05:43:06.453Z,718.00
2023-05-03T05:44:07.474Z,717.00
2023-05-03T05:45:07.463Z,715.00
2023-05-03T05:46:06.476Z,715.00
2023-05-03T05:47:08.963Z,714.00
2023-05-03T05:48:06.638Z,713.00
2023-05-03T05:49:07.676Z,711.00
2023-05-03T05:50:16.862Z,712.00
2023-05-03T05:51:07.641Z,713.00
2023-05-03T05:52:06.605Z,714.00
2023-05-03T05:53:06.564Z,714.00
2023-05-03T05:54:07.561Z,712.00
2023-05-03T05:55:06.544Z,710.00
2023-05-03T05:56:07.571Z,709.00
2023-05-03T05:57:06.557Z,712.00
2023-05-03T05:58:07.578Z,713.00
2023-05-03T05:59:06.528Z,710.00
2023-05-03T06:00:07.509Z,708.00
2023-05-03T06:01:07.509Z,707.00
2023-05-03T06:02:07.690Z,707.00
2023-05-03T06:03:07.554Z,708.00
2023-05-03T06:04:06.492Z,708.00
2023-05-03T06:05:07.979Z,709.00
2023-05-03T06:06:07.516Z,709.00
2023-05-03T06:07:07.531Z,709.00
2023-05-03T06:08:06.450Z,709.00
2023-05-03T06:09:22.995Z,708.00
2023-05-03T06:10:07.529Z,707.00
2023-05-03T06:11:07.434Z,707.00
2023-05-03T06:12:07.462Z,697.00
2023-05-03T06:13:06.428Z,709.00
2023-05-03T06:14:07.402Z,705.00
2023-05-03T06:15:06.405Z,704.00
2023-05-03T06:16:06.400Z,705.00
2023-05-03T06:17:07.473Z,706.00
2023-05-03T06:18:07.475Z,723.00
2023-05-03T06:19:07.481Z,749.00
2023-05-03T06:20:06.626Z,768.00
2023-05-03T06:21:06.366Z,837.00
2023-05-03T06:22:07.368Z,828.00
2023-05-03T06:23:07.515Z,842.00
2023-05-03T06:24:08.129Z,887.00
2023-05-03T06:25:07.349Z,886.00
2023-05-03T06:26:07.330Z,898.00
2023-05-03T06:27:07.319Z,951.00
2023-05-03T06:28:07.325Z,961.00
2023-05-03T06:29:07.304Z,989.00
2023-05-03T06:30:07.358Z,988.00
2023-05-03T06:31:07.335Z,1015.00
2023-05-03T06:32:06.274Z,1042.00
2023-05-03T06:33:06.336Z,1061.00
2023-05-03T06:34:09.804Z,1079.00
2023-05-03T06:35:06.262Z,1093.00
2023-05-03T06:36:07.245Z,1129.00
2023-05-03T06:37:07.256Z,1127.00
2023-05-03T06:38:06.244Z,1146.00
2023-05-03T06:39:07.258Z,1174.00
2023-05-03T06:40:07.224Z,1203.00
2023-05-03T06:41:07.214Z,1231.00
2023-05-03T06:42:07.218Z,1246.00
2023-05-03T06:43:06.204Z,1260.00
2023-05-03T06:44:06.196Z,1269.00
2023-05-03T06:45:07.190Z,1277.00
2023-05-03T06:46:07.238Z,1289.00
2023-05-03T06:47:07.210Z,1297.00
2023-05-03T06:48:06.329Z,1304.00
2023-05-03T06:49:07.250Z,1308.00
2023-05-03T06:50:06.293Z,1315.00
2023-05-03T06:51:07.338Z,1325.00
2023-05-03T06:52:08.849Z,1322.00
2023-05-03T06:53:07.747Z,1330.00
2023-05-03T06:54:07.138Z,1335.00
2023-05-03T06:55:07.202Z,1327.00
2023-05-03T06:56:06.162Z,1332.00
2023-05-03T06:57:07.123Z,1313.00
2023-05-03T06:58:07.130Z,1314.00
2023-05-03T06:59:06.107Z,1322.00
2023-05-03T07:00:06.222Z,1334.00
2023-05-03T07:01:06.365Z,1339.00
2023-05-03T07:02:06.118Z,1343.00
2023-05-03T07:03:06.129Z,1362.00
2023-05-03T07:04:07.439Z,1369.00
2023-05-03T07:05:07.146Z,1370.00
2023-05-03T07:06:06.201Z,1375.00
2023-05-03T07:07:07.100Z,1380.00
2023-05-03T07:08:06.054Z,1382.00
2023-05-03T07:09:07.070Z,1390.00
2023-05-03T07:10:07.188Z,1397.00
2023-05-03T07:11:07.129Z,1407.00
2023-05-03T07:12:07.197Z,1414.00
2023-05-03T07:13:06.201Z,1422.00
2023-05-03T07:14:06.066Z,1428.00
2023-05-03T07:15:07.050Z,1440.00
2023-05-03T07:16:06.116Z,1461.00
2023-05-03T07:17:06.079Z,1470.00
2023-05-03T07:18:06.260Z,1478.00
2023-05-03T07:19:07.090Z,1488.00
2023-05-03T07:20:06.234Z,1497.00
2023-05-03T07:21:09.210Z,1506.00
2023-05-03T07:22:06.110Z,1516.00
2023-05-03T07:23:06.124Z,1524.00
2023-05-03T07:24:06.127Z,1530.00
2023-05-03T07:25:07.217Z,1522.00
2023-05-03T07:26:06.239Z,1520.00
2023-05-03T07:27:07.160Z,1514.00
2023-05-03T07:28:06.064Z,1509.00
2023-05-03T07:29:07.074Z,1503.00
2023-05-03T07:30:07.189Z,1505.00
2023-05-03T07:31:07.313Z,1508.00
2023-05-03T07:32:07.049Z,1506.00
2023-05-03T07:33:07.382Z,1520.00
2023-05-03T07:34:07.144Z,1525.00
2023-05-03T07:35:07.257Z,1561.00
2023-05-03T07:36:07.048Z,1566.00
2023-05-03T07:37:07.027Z,1564.00
2023-05-03T07:38:07.008Z,1562.00
2023-05-03T07:39:07.038Z,1578.00
2023-05-03T07:40:06.144Z,1584.00
2023-05-03T07:41:06.979Z,1605.00
2023-05-03T07:42:07.066Z,1619.00
2023-05-03T07:43:06.025Z,1635.00
2023-05-03T07:44:06.963Z,1647.00
2023-05-03T07:45:05.966Z,1648.00
2023-05-03T07:46:06.967Z,1596.00
2023-05-03T07:47:06.000Z,1651.00
2023-05-03T07:48:07.170Z,1669.00
2023-05-03T07:49:06.934Z,1668.00
2023-05-03T07:50:05.927Z,1664.00
2023-05-03T07:51:06.922Z,1661.00
2023-05-03T07:52:06.938Z,1635.00
2023-05-03T07:53:07.190Z,1590.00
2023-05-03T07:54:06.917Z,1577.00
2023-05-03T07:55:05.931Z,1559.00
2023-05-03T07:56:06.879Z,1540.00
2023-05-03T07:57:05.879Z,1501.00
2023-05-03T07:58:05.877Z,1484.00
2023-05-03T07:59:09.876Z,1328.00
2023-05-03T08:00:06.872Z,1316.00
2023-05-03T08:01:06.924Z,1344.00
2023-05-03T08:02:05.905Z,1338.00
2023-05-03T08:03:07.131Z,1295.00
2023-05-03T08:04:06.150Z,1290.00
2023-05-03T08:05:07.033Z,1277.00
2023-05-03T08:06:05.929Z,1269.00
2023-05-03T08:07:07.268Z,1260.00
2023-05-03T08:08:05.856Z,1256.00
2023-05-03T08:09:05.832Z,1247.00
2023-05-03T08:10:06.073Z,1238.00
2023-05-03T08:11:05.816Z,1207.00
2023-05-03T08:12:06.834Z,1204.00
2023-05-03T08:13:06.799Z,1192.00
2023-05-03T08:14:08.732Z,1183.00
2023-05-03T08:15:05.997Z,1161.00
2023-05-03T08:16:05.804Z,1157.00
2023-05-03T08:17:06.771Z,1152.00
2023-05-03T08:18:06.813Z,1145.00
2023-05-03T08:19:06.739Z,1136.00
2023-05-03T08:20:06.920Z,1120.00
2023-05-03T08:21:06.728Z,1114.00
2023-05-03T08:22:05.742Z,1107.00
2023-05-03T08:23:05.729Z,1086.00
2023-05-03T08:24:06.702Z,1064.00
2023-05-03T08:25:06.688Z,1054.00
2023-05-03T08:26:06.697Z,1027.00
2023-05-03T08:27:05.695Z,1001.00
2023-05-03T08:28:06.672Z,998.00
2023-05-03T08:29:06.677Z,993.00
2023-05-03T08:30:06.835Z,996.00
2023-05-03T08:31:06.729Z,1014.00
2023-05-03T08:32:06.650Z,1058.00
2023-05-03T08:33:05.687Z,1074.00
2023-05-03T08:34:05.632Z,1086.00
2023-05-03T08:35:06.630Z,1090.00
2023-05-03T08:36:05.656Z,1103.00
2023-05-03T08:37:06.831Z,1198.00
2023-05-03T08:38:05.628Z,1190.00
2023-05-03T08:39:06.613Z,1202.00
2023-05-03T08:40:06.667Z,1226.00
2023-05-03T08:41:06.596Z,1248.00
2023-05-03T08:42:06.602Z,1269.00
2023-05-03T08:43:05.694Z,1279.00
2023-05-03T08:44:06.577Z,1296.00
2023-05-03T08:45:06.584Z,1303.00
2023-05-03T08:46:05.588Z,1324.00
2023-05-03T08:47:06.768Z,1355.00
2023-05-03T08:48:06.725Z,1390.00
2023-05-03T08:49:06.602Z,1401.00
2023-05-03T08:50:06.661Z,1429.00
2023-05-03T08:51:06.708Z,1463.00
2023-05-03T08:52:05.693Z,1473.00
2023-05-03T08:53:06.705Z,1486.00
2023-05-03T08:54:06.699Z,1495.00
2023-05-03T08:55:06.778Z,1513.00
2023-05-03T08:56:05.734Z,1565.00
2023-05-03T08:57:06.778Z,1577.00
2023-05-03T08:58:07.195Z,1584.00
2023-05-03T08:59:05.799Z,1621.00
2023-05-03T09:00:07.021Z,1633.00
2023-05-03T09:01:06.831Z,1643.00
2023-05-03T09:02:06.855Z,1649.00
2023-05-03T09:03:06.986Z,1654.00
2023-05-03T09:04:06.985Z,1659.00
2023-05-03T09:05:05.994Z,1671.00
2023-05-03T09:06:05.924Z,1690.00
2023-05-03T09:07:05.919Z,1716.00
2023-05-03T09:08:06.953Z,1719.00
2023-05-03T09:09:05.965Z,1780.00
2023-05-03T09:10:06.985Z,1778.00
2023-05-03T09:11:05.941Z,1766.00
2023-05-03T09:12:05.999Z,1746.00
2023-05-03T09:13:07.069Z,1710.00
2023-05-03T09:14:06.084Z,1723.00
2023-05-03T09:15:07.128Z,1731.00
2023-05-03T09:16:06.196Z,1718.00
2023-05-03T09:17:06.191Z,1731.00
2023-05-03T09:18:07.280Z,1733.00
2023-05-03T09:19:07.359Z,1742.00
2023-05-03T09:20:07.591Z,1749.00
2023-05-03T09:21:07.313Z,1765.00
2023-05-03T09:22:07.355Z,1754.00
2023-05-03T09:23:06.365Z,1763.00
2023-05-03T09:24:07.367Z,1754.00
2023-05-03T09:25:07.417Z,1755.00
2023-05-03T09:26:06.447Z,1751.00
2023-05-03T09:27:06.484Z,1741.00
2023-05-03T09:28:07.532Z,1751.00
2023-05-03T09:29:07.582Z,1729.00
2023-05-03T09:30:07.632Z,1615.00
2023-05-03T09:31:07.834Z,1477.00
2023-05-03T09:32:07.772Z,1545.00
2023-05-03T09:33:06.811Z,1540.00
2023-05-03T09:34:06.817Z,1527.00
2023-05-03T09:35:07.890Z,1504.00
2023-05-03T09:36:06.886Z,1484.00
2023-05-03T09:37:07.935Z,1414.00
2023-05-03T09:38:07.162Z,1430.00
2023-05-03T09:39:07.228Z,1438.00
2023-05-03T09:40:07.133Z,1357.00
2023-05-03T09:41:08.209Z,1316.00
2023-05-03T09:42:08.132Z,1300.00
2023-05-03T09:43:08.205Z,1293.00
2023-05-03T09:44:08.251Z,1296.00
2023-05-03T09:45:08.300Z,1173.00
2023-05-03T09:46:08.484Z,1171.00
2023-05-03T09:47:08.423Z,1188.00
2023-05-03T09:48:08.539Z,1190.00
2023-05-03T09:49:07.698Z,1169.00
2023-05-03T09:50:07.603Z,1040.00
2023-05-03T09:51:07.739Z,1036.00
2023-05-03T09:52:08.638Z,1050.00
2023-05-03T09:53:07.700Z,1073.00
2023-05-03T09:54:08.191Z,1083.00
2023-05-03T09:55:08.780Z,1087.00
2023-05-03T09:56:07.835Z,1093.00
2023-05-03T09:57:08.972Z,1095.00
2023-05-03T09:58:08.974Z,1099.00
2023-05-03T09:59:07.985Z,1106.00
2023-05-03T10:00:09.018Z,1034.00
2023-05-03T10:01:09.071Z,1046.00
2023-05-03T10:02:08.166Z,1114.00
2023-05-03T10:03:09.181Z,1033.00
2023-05-03T10:04:08.263Z,1043.00
2023-05-03T10:05:09.263Z,1041.00
2023-05-03T10:06:08.341Z,1042.00
2023-05-03T10:07:09.291Z,1026.00
2023-05-03T10:08:08.393Z,1013.00
2023-05-03T10:09:08.420Z,1043.00
2023-05-03T10:10:09.473Z,1033.00
2023-05-03T10:11:09.538Z,971.00
2023-05-03T10:12:08.657Z,924.00
2023-05-03T10:13:20.719Z,934.00
2023-05-03T10:14:08.637Z,935.00
2023-05-03T10:15:08.654Z,930.00
2023-05-03T10:16:08.674Z,927.00
2023-05-03T10:17:09.614Z,877.00
2023-05-03T10:18:08.657Z,917.00
2023-05-03T10:19:10.945Z,867.00
2023-05-03T10:20:08.596Z,888.00
2023-05-03T10:21:08.590Z,772.00
2023-05-03T10:22:09.601Z,890.00
2023-05-03T10:23:09.646Z,902.00
2023-05-03T10:24:08.559Z,908.00
2023-05-03T10:25:09.562Z,865.00
2023-05-03T10:26:09.565Z,870.00
2023-05-03T10:27:09.558Z,889.00
2023-05-03T10:28:09.561Z,890.00
2023-05-03T10:29:09.554Z,895.00
2023-05-03T10:30:09.565Z,908.00
2023-05-03T10:31:09.548Z,919.00
2023-05-03T10:32:09.542Z,939.00
2023-05-03T10:34:27.934Z,1042.00
2023-05-03T10:35:28.943Z,1012.00
2023-05-03T10:36:38.371Z,992.00
2023-05-03T10:37:28.902Z,834.00
2023-05-03T10:38:28.950Z,850.00
2023-05-03T10:39:27.901Z,866.00
2023-05-03T10:40:28.892Z,851.00
2023-05-03T10:41:27.877Z,852.00
2023-05-03T10:42:28.891Z,867.00
2023-05-03T10:43:28.175Z,962.00
2023-05-03T10:44:28.868Z,948.00
2023-05-03T10:45:28.915Z,980.00
2023-05-03T10:46:28.891Z,975.00
2023-05-03T10:47:28.872Z,973.00
2023-05-03T10:48:28.852Z,990.00
2023-05-03T10:49:27.825Z,1005.00
2023-05-03T10:50:28.857Z,1003.00
2023-05-03T10:51:27.872Z,1021.00
2023-05-03T10:52:27.815Z,1057.00
2023-05-03T10:53:28.808Z,1049.00
2023-05-03T10:54:28.871Z,1046.00
2023-05-03T10:55:28.810Z,1076.00
2023-05-03T10:56:28.775Z,1061.00
2023-05-03T10:57:28.788Z,1097.00
2023-05-03T10:58:28.970Z,1088.00
2023-05-03T10:59:27.802Z,1103.00
2023-05-03T11:00:27.774Z,1092.00
2023-05-03T11:01:27.811Z,1128.00
2023-05-03T11:02:28.770Z,1122.00
2023-05-03T11:03:28.938Z,1122.00
2023-05-03T11:04:31.060Z,1114.00
2023-05-03T11:05:28.834Z,1105.00
2023-05-03T11:06:28.752Z,1107.00
2023-05-03T11:07:28.701Z,1107.00
2023-05-03T11:08:27.700Z,1105.00
2023-05-03T11:09:27.674Z,1102.00
2023-05-03T11:10:27.698Z,1102.00
2023-05-03T11:11:27.682Z,1102.00
2023-05-03T11:12:28.668Z,1105.00
2023-05-03T11:13:28.680Z,1105.00
2023-05-03T11:14:28.642Z,1105.00
2023-05-03T11:15:28.652Z,1107.00
2023-05-03T11:16:27.676Z,1111.00
2023-05-03T11:17:27.643Z,1110.00
2023-05-03T11:18:27.632Z,1109.00
2023-05-03T11:19:28.619Z,1106.00
2023-05-03T11:20:28.606Z,1106.00
2023-05-03T11:21:28.595Z,1106.00
2023-05-03T11:26:57.474Z,1115.00
2023-05-03T11:27:57.403Z,1111.00
2023-05-03T11:28:57.457Z,1109.00
2023-05-03T11:36:32.384Z,1109.00
2023-05-03T11:37:33.334Z,1110.00
2023-05-03T11:38:33.415Z,1109.00
2023-05-03T11:39:33.371Z,1110.00
2023-05-03T11:40:32.368Z,1111.00
2023-05-03T11:41:32.422Z,1110.00
2023-05-03T11:42:32.526Z,1109.00
2023-05-03T11:43:32.474Z,1111.00
2023-05-03T11:44:33.506Z,1113.00
2023-05-03T11:45:32.606Z,1113.00
2023-05-03T11:46:33.550Z,1111.00
2023-05-03T11:47:33.525Z,1112.00
2023-05-03T11:48:32.648Z,1112.00
2023-05-03T11:56:42.636Z,1119.00
2023-05-03T11:57:43.685Z,1117.00
2023-05-03T11:58:43.698Z,1114.00
2023-05-03T11:59:42.696Z,1114.00
2023-05-03T12:00:43.682Z,1113.00
2023-05-03T12:01:42.787Z,1113.00
2023-05-03T12:02:42.954Z,1116.00
2023-05-03T12:03:43.982Z,1113.00
2023-05-03T12:10:49.108Z,1113.00
2023-05-03T12:11:49.126Z,1113.00
2023-05-03T12:12:50.181Z,1110.00
2023-05-03T12:13:48.737Z,1110.00
2023-05-03T12:20:51.887Z,1115.00
2023-05-03T12:22:25.729Z,1116.00
2023-05-03T12:23:19.843Z,1116.00
2023-05-03T12:25:20.252Z,1115.00
2023-05-03T12:26:19.691Z,1116.00
2023-05-03T12:27:19.815Z,1118.00
2023-05-03T12:28:21.096Z,1118.00
2023-05-03T12:29:19.434Z,1114.00
2023-05-03T12:30:19.771Z,1113.00
2023-05-03T12:31:22.545Z,1112.00
2023-05-03T12:32:18.690Z,1113.00
2023-05-03T12:33:21.803Z,1114.00
2023-05-03T12:35:19.668Z,1113.00
2023-05-03T12:36:21.201Z,1111.00
2023-05-03T12:37:21.942Z,1110.00
2023-05-03T12:38:23.321Z,1106.00
2023-05-03T12:39:21.816Z,1104.00
2023-05-03T12:40:31.509Z,1101.00
2023-05-03T12:41:52.240Z,1103.00
2023-05-03T12:43:18.606Z,1104.00
2023-05-03T12:44:22.425Z,1101.00
2023-05-03T12:45:21.270Z,1101.00
2023-05-03T12:51:34.384Z,1107.00
2023-05-03T12:52:37.846Z,1109.00
2023-05-03T12:53:38.656Z,1108.00
2023-05-03T12:54:35.175Z,1109.00
2023-05-03T12:55:37.124Z,1109.00
2023-05-03T12:56:39.390Z,1106.00
2023-05-03T12:57:37.188Z,1104.00
2023-05-03T12:58:56.680Z,1107.00
2023-05-03T13:00:35.999Z,1104.00
2023-05-03T13:03:35.535Z,1101.00
2023-05-03T13:04:56.707Z,1101.00
2023-05-03T13:05:36.545Z,1098.00
2023-05-03T13:06:39.172Z,1096.00
2023-05-03T13:08:35.291Z,1102.00
2023-05-03T13:10:12.246Z,1104.00
2023-05-03T13:10:35.313Z,1105.00
2023-05-03T13:11:35.249Z,1106.00
2023-05-03T13:12:35.182Z,1105.00
2023-05-03T13:13:35.165Z,1107.00
2023-05-03T13:14:35.152Z,1107.00
2023-05-03T13:15:34.234Z,1105.00
2023-05-03T14:32:07.072Z,1053.00
2023-05-03T14:33:07.025Z,1052.00
2023-05-03T14:34:07.989Z,1054.00
2023-05-03T14:35:06.996Z,1052.00
2023-05-03T14:36:06.998Z,1052.00
2023-05-03T14:37:08.171Z,1055.00
2023-05-03T14:38:07.131Z,1052.00
2023-05-03T14:39:07.150Z,1054.00
2023-05-03T14:40:08.467Z,1053.00
2023-05-03T14:41:08.211Z,1051.00
2023-05-03T14:42:07.231Z,1053.00
2023-05-03T14:43:08.228Z,1052.00
2023-05-03T14:44:07.243Z,1051.00
2023-05-03T14:45:09.940Z,1051.00
2023-05-03T14:46:08.241Z,1050.00
2023-05-03T14:47:08.351Z,1050.00
2023-05-03T14:48:07.287Z,1052.00
2023-05-03T14:49:08.223Z,1053.00
2023-05-03T14:50:07.410Z,1051.00
2023-05-03T14:51:08.218Z,1052.00
2023-05-03T14:52:07.188Z,1054.00
2023-05-03T14:53:07.201Z,1051.00
2023-05-03T14:54:08.194Z,1049.00
2023-05-03T14:55:08.195Z,1049.00
2023-05-03T14:56:07.182Z,1046.00
2023-05-03T14:57:08.181Z,1048.00
2023-05-03T14:58:07.159Z,1048.00
2023-05-03T14:59:07.153Z,1052.00
2023-05-03T15:00:08.380Z,1050.00
2023-05-03T15:01:08.178Z,1050.00
2023-05-03T15:02:07.208Z,1048.00
2023-05-03T15:03:08.273Z,1046.00
2023-05-03T15:04:07.158Z,1047.00
2023-05-03T15:05:07.121Z,1046.00
2023-05-03T15:06:08.120Z,1047.00
2023-05-03T15:07:07.108Z,1048.00
2023-05-03T15:08:07.108Z,1048.00
2023-05-03T15:09:07.113Z,1047.00
2023-05-03T15:10:07.283Z,1045.00
2023-05-03T15:11:07.076Z,1046.00
2023-05-03T15:12:08.074Z,1045.00
2023-05-03T15:13:07.181Z,1048.00
2023-05-03T15:14:08.126Z,1050.00
2023-05-03T15:15:07.072Z,1049.00
2023-05-03T15:16:07.066Z,1050.00
2023-05-03T15:17:07.117Z,1050.00
2023-05-03T15:18:07.051Z,1046.00
2023-05-03T15:19:08.040Z,1046.00
2023-05-03T15:20:07.481Z,1048.00
2023-05-03T15:21:07.022Z,1050.00
2023-05-03T15:22:07.048Z,1049.00
2023-05-03T15:23:07.102Z,1049.00
2023-05-03T15:24:08.169Z,1050.00
2023-05-03T15:25:07.252Z,1051.00
2023-05-03T15:26:08.266Z,1051.00
2023-05-03T15:27:07.357Z,1052.00
